createdAt,value
2023-05-13T00:05:54.446Z,7.60
2023-05-13T00:20:54.125Z,6.60
2023-05-13T00:35:54.306Z,5.80
2023-05-13T00:50:54.573Z,7.70
2023-05-13T01:05:54.753Z,5.10
2023-05-13T01:20:54.871Z,11.80
2023-05-13T01:35:55.024Z,4.90
2023-05-13T01:50:55.193Z,5.20
2023-05-13T02:05:55.438Z,5.00
2023-05-13T02:20:55.586Z,5.50
2023-05-13T02:35:55.812Z,8.20
2023-05-13T02:50:56.662Z,8.80
2023-05-13T03:05:56.839Z,6.00
2023-05-13T03:20:57.075Z,43.30
2023-05-13T03:35:57.316Z,1103.80
2023-05-13T03:50:57.702Z,574.10
2023-05-13T04:05:57.785Z,576.70
2023-05-13T04:20:58.238Z,384.60
2023-05-13T04:35:58.891Z,396.10
2023-05-13T04:50:59.020Z,743.40
2023-05-13T05:05:59.986Z,184.20
2023-05-13T05:21:01.788Z,178.70
2023-05-13T05:36:02.192Z,178.80
2023-05-13T05:51:02.305Z,181.60
2023-05-13T06:06:02.437Z,164.90
2023-05-13T06:21:03.053Z,134.90
2023-05-13T06:36:03.574Z,87.10
2023-05-13T06:51:04.201Z,45.10
2023-05-13T07:06:04.264Z,23.10
2023-05-13T07:21:04.435Z,29.10
2023-05-13T07:36:04.396Z,6.00
2023-05-13T07:51:05.427Z,6.50
2023-05-13T08:06:05.449Z,9.50
2023-05-13T08:21:05.535Z,6.60
2023-05-13T08:36:05.618Z,5.10
2023-05-13T08:51:06.302Z,3.80
2023-05-13T09:06:06.462Z,2.10
2023-05-13T09:21:07.892Z,4.40
2023-05-13T09:36:08.401Z,3.20
2023-05-13T09:51:08.551Z,5.50
2023-05-13T10:06:08.886Z,3.40
2023-05-13T10:21:08.649Z,3.50
2023-05-13T10:36:08.916Z,3.90
2023-05-13T10:51:09.010Z,3.60
2023-05-13T11:06:08.991Z,5.80
2023-05-13T11:21:09.104Z,4.20
2023-05-13T11:36:09.101Z,7.20
2023-05-13T11:51:09.226Z,4.80
2023-05-13T12:06:10.225Z,2.50
2023-05-13T12:21:10.342Z,3.00
2023-05-13T12:36:10.355Z,3.80
2023-05-13T12:51:10.924Z,4.70
2023-05-13T13:06:11.632Z,4.00
2023-05-13T13:21:11.715Z,40.20
2023-05-13T13:36:11.662Z,3.50
2023-05-13T13:51:12.337Z,4.80
2023-05-13T14:06:12.482Z,6.20
2023-05-13T14:21:12.533Z,7.10
2023-05-13T14:36:12.615Z,2.80
2023-05-13T14:51:12.730Z,47.70
2023-05-13T15:06:12.816Z,2.70
2023-05-13T15:21:12.865Z,2.30
2023-05-13T15:36:13.057Z,4.40
2023-05-13T15:51:13.077Z,7.10
2023-05-13T16:06:13.254Z,3.30
2023-05-13T16:21:13.415Z,6.30
2023-05-13T16:36:13.579Z,52.20
2023-05-13T16:51:13.838Z,47.00
2023-05-13T17:06:16.096Z,94.50
2023-05-13T17:21:16.699Z,52.00
2023-05-13T17:36:16.786Z,45.20
2023-05-13T17:51:16.887Z,39.50
2023-05-13T18:06:17.238Z,40.00
2023-05-13T18:21:17.048Z,41.80
2023-05-13T18:36:17.724Z,50.20
2023-05-13T18:51:20.535Z,65.40
2023-05-13T19:06:20.935Z,5.90
2023-05-13T19:21:21.040Z,6.30
2023-05-13T19:36:21.475Z,5.90
2023-05-13T19:51:22.142Z,8.70
2023-05-13T20:06:22.218Z,9.50
2023-05-13T20:21:22.368Z,8.50
2023-05-13T20:36:22.384Z,16.40
2023-05-13T20:51:22.471Z,11.20
2023-05-13T21:06:22.550Z,17.50
2023-05-13T21:21:22.656Z,22.80
2023-05-13T21:36:22.763Z,17.40
2023-05-13T21:51:22.887Z,18.10
2023-05-13T22:06:22.983Z,19.80
2023-05-13T22:21:23.033Z,21.20
2023-05-13T22:36:23.112Z,19.90
2023-05-13T22:51:23.239Z,22.10
2023-05-13T23:06:23.827Z,21.00
2023-05-13T23:21:23.856Z,17.00
2023-05-13T23:36:23.955Z,17.50
2023-05-13T23:51:24.077Z,16.90
